Time;durP1;ratioP1;P1;durP2;ratioP2;P2;SDS_P1;SDS_P2;PMS_P1;PMS_P2;Temp;Humidity;BMP_temperature;BMP_pressure;BME280_temperature;BME280_humidity;BME280_pressure;Samples;Min_cycle;Max_cycle;Signal;HPM_P1;HPM_P2
2023/12/13 00:00:09;;;;;;;35.10;19.20;;;;;;;;;;4868786;29;20108;-73
2023/12/13 00:02:35;;;;;;;37.17;19.70;;;;;;;;;;4874250;29;20045;-74
2023/12/13 00:05:03;;;;;;;41.55;20.75;;;;;;;;;;4868220;29;20821;-74
2023/12/13 00:07:29;;;;;;;40.42;19.88;;;;;;;;;;4867398;29;20182;-74
2023/12/13 00:09:55;;;;;;;43.65;21.75;;;;;;;;;;4870888;29;20071;-72
2023/12/13 00:12:21;;;;;;;41.17;22.50;;;;;;;;;;4866951;29;20053;-74
2023/12/13 00:14:51;;;;;;;40.00;21.45;;;;;;;;;;4871554;29;20049;-74
2023/12/13 00:17:18;;;;;;;39.88;21.85;;;;;;;;;;4860768;29;20049;-74
2023/12/13 00:19:47;;;;;;;41.72;22.35;;;;;;;;;;4882590;29;20052;-75
2023/12/13 00:22:13;;;;;;;46.10;24.35;;;;;;;;;;4873190;29;20398;-72
2023/12/13 00:24:39;;;;;;;43.97;24.77;;;;;;;;;;4860624;29;20049;-72
2023/12/13 00:27:05;;;;;;;46.58;24.25;;;;;;;;;;4864460;29;20067;-72
2023/12/13 00:29:31;;;;;;;43.75;25.58;;;;;;;;;;4862406;29;20048;-73
2023/12/13 00:31:57;;;;;;;48.45;26.40;;;;;;;;;;4859715;29;20385;-71
2023/12/13 00:34:23;;;;;;;46.45;24.95;;;;;;;;;;4883275;29;20136;-71
2023/12/13 00:36:49;;;;;;;42.10;25.30;;;;;;;;;;4861439;29;20068;-71
2023/12/13 00:39:18;;;;;;;44.03;25.10;;;;;;;;;;4861768;29;20037;-71
2023/12/13 00:41:44;;;;;;;46.15;25.95;;;;;;;;;;4871345;29;20490;-71
2023/12/13 00:44:10;;;;;;;48.15;26.00;;;;;;;;;;4867873;29;20044;-71
2023/12/13 00:46:36;;;;;;;54.63;27.30;;;;;;;;;;4864920;29;20079;-72
2023/12/13 00:49:02;;;;;;;52.45;28.48;;;;;;;;;;4877081;29;20045;-71
2023/12/13 00:51:28;;;;;;;50.97;27.42;;;;;;;;;;4876345;29;20257;-71
2023/12/13 00:53:54;;;;;;;50.53;28.42;;;;;;;;;;4864557;29;20050;-71
2023/12/13 00:56:21;;;;;;;51.38;28.67;;;;;;;;;;4868082;29;20064;-71
2023/12/13 00:58:47;;;;;;;50.95;28.50;;;;;;;;;;4862194;29;20105;-71
2023/12/13 01:01:20;;;;;;;54.63;27.85;;;;;;;;;;4867500;29;20058;-71
2023/12/13 01:03:46;;;;;;;55.67;28.67;;;;;;;;;;4865335;29;20079;-71
2023/12/13 01:06:12;;;;;;;52.05;27.35;;;;;;;;;;4873904;29;20458;-72
2023/12/13 01:08:38;;;;;;;48.55;26.48;;;;;;;;;;4877674;29;20485;-71
2023/12/13 01:11:14;;;;;;;56.08;27.25;;;;;;;;;;4892366;29;20048;-71
2023/12/13 01:13:41;;;;;;;47.55;26.45;;;;;;;;;;4860851;29;20045;-71
2023/12/13 01:16:07;;;;;;;47.53;25.85;;;;;;;;;;4864604;29;20057;-71
2023/12/13 01:18:36;;;;;;;46.85;26.95;;;;;;;;;;4866842;29;20045;-71
2023/12/13 01:21:02;;;;;;;48.95;25.88;;;;;;;;;;4858220;29;20048;-71
2023/12/13 01:23:28;;;;;;;52.03;25.90;;;;;;;;;;4867329;29;20084;-72
2023/12/13 01:25:55;;;;;;;52.80;26.65;;;;;;;;;;4879582;29;20405;-71
2023/12/13 01:28:21;;;;;;;52.53;27.02;;;;;;;;;;4887892;29;20049;-71
2023/12/13 01:30:47;;;;;;;52.83;26.20;;;;;;;;;;4862798;29;20667;-71
2023/12/13 01:33:13;;;;;;;52.00;25.27;;;;;;;;;;4869316;29;20083;-71
2023/12/13 01:35:39;;;;;;;47.60;25.33;;;;;;;;;;4867636;29;20471;-72
2023/12/13 01:38:05;;;;;;;52.50;25.25;;;;;;;;;;4865355;29;20059;-71
2023/12/13 01:40:34;;;;;;;51.78;26.00;;;;;;;;;;4862803;29;20060;-71
2023/12/13 01:43:00;;;;;;;48.97;24.67;;;;;;;;;;4865910;29;20055;-71
2023/12/13 01:45:26;;;;;;;40.88;22.52;;;;;;;;;;4884261;29;20049;-71
2023/12/13 01:47:54;;;;;;;44.83;22.45;;;;;;;;;;4874727;29;20044;-71
2023/12/13 01:50:24;;;;;;;46.50;22.30;;;;;;;;;;4859726;29;20057;-71
2023/12/13 01:52:50;;;;;;;38.92;20.05;;;;;;;;;;4864304;29;20077;-72
2023/12/13 01:55:16;;;;;;;39.40;20.38;;;;;;;;;;4868923;29;20109;-71
2023/12/13 01:57:42;;;;;;;34.45;19.45;;;;;;;;;;4862422;29;20077;-72
2023/12/13 02:00:08;;;;;;;35.28;18.70;;;;;;;;;;4856941;29;20092;-71
2023/12/13 02:02:34;;;;;;;32.65;17.73;;;;;;;;;;4860898;29;20052;-71
2023/12/13 02:05:01;;;;;;;36.92;17.75;;;;;;;;;;4857345;29;20045;-71
2023/12/13 02:07:27;;;;;;;33.30;16.98;;;;;;;;;;4865893;29;20543;-71
2023/12/13 02:09:53;;;;;;;33.75;17.25;;;;;;;;;;4859427;29;20116;-71
2023/12/13 02:12:19;;;;;;;29.42;16.40;;;;;;;;;;4860686;29;20057;-71
2023/12/13 02:14:46;;;;;;;31.73;17.33;;;;;;;;;;4866026;29;20053;-71
2023/12/13 02:17:13;;;;;;;34.75;17.30;;;;;;;;;;4856643;29;20072;-71
2023/12/13 02:19:39;;;;;;;31.58;15.98;;;;;;;;;;4857317;29;20049;-71
2023/12/13 02:22:07;;;;;;;32.63;17.48;;;;;;;;;;4860228;29;20113;-71
2023/12/13 02:24:33;;;;;;;31.02;17.10;;;;;;;;;;4863063;29;20407;-72
2023/12/13 02:27:01;;;;;;;34.45;17.67;;;;;;;;;;4865631;29;20049;-71
2023/12/13 02:29:27;;;;;;;27.23;15.98;;;;;;;;;;4862709;29;20061;-71
2023/12/13 02:31:53;;;;;;;29.25;16.42;;;;;;;;;;4868222;29;20056;-71
2023/12/13 02:34:20;;;;;;;33.45;16.15;;;;;;;;;;4860193;29;20114;-71
2023/12/13 02:36:48;;;;;;;30.08;16.70;;;;;;;;;;4857565;29;20668;-71
2023/12/13 02:39:15;;;;;;;31.65;16.23;;;;;;;;;;4861318;29;20140;-71
2023/12/13 02:41:41;;;;;;;30.02;16.60;;;;;;;;;;4861575;29;20129;-71
2023/12/13 02:44:07;;;;;;;26.85;15.75;;;;;;;;;;4867956;29;20077;-71
2023/12/13 02:46:33;;;;;;;30.00;16.60;;;;;;;;;;4857610;29;20474;-71
2023/12/13 02:49:02;;;;;;;27.40;15.90;;;;;;;;;;4865758;29;20045;-71
2023/12/13 02:51:28;;;;;;;28.70;16.13;;;;;;;;;;4828721;29;1069772;-71
2023/12/13 02:53:54;;;;;;;27.33;16.40;;;;;;;;;;4857294;29;20044;-71
2023/12/13 02:56:20;;;;;;;27.73;15.48;;;;;;;;;;4857062;29;20066;-71
2023/12/13 02:58:46;;;;;;;27.52;16.67;;;;;;;;;;4864444;29;20053;-71
2023/12/13 03:01:18;;;;;;;33.03;17.15;;;;;;;;;;4863270;29;20061;-71
2023/12/13 03:03:44;;;;;;;31.42;16.45;;;;;;;;;;4877300;29;20444;-71
2023/12/13 03:06:10;;;;;;;30.02;15.63;;;;;;;;;;4853755;29;20205;-71
2023/12/13 03:08:36;;;;;;;30.70;16.17;;;;;;;;;;4857763;29;20503;-71
2023/12/13 03:11:02;;;;;;;30.15;16.35;;;;;;;;;;4864530;29;20074;-71
2023/12/13 03:13:28;;;;;;;31.13;17.10;;;;;;;;;;4860744;29;20091;-71
2023/12/13 03:15:54;;;;;;;31.02;17.20;;;;;;;;;;4860189;29;20491;-71
2023/12/13 03:18:20;;;;;;;30.60;16.60;;;;;;;;;;4863489;29;20061;-71
2023/12/13 03:20:47;;;;;;;29.73;16.50;;;;;;;;;;4863486;29;20057;-71
2023/12/13 03:23:13;;;;;;;31.70;16.23;;;;;;;;;;4864092;29;20077;-71
2023/12/13 03:25:39;;;;;;;31.60;16.25;;;;;;;;;;4845603;29;20049;-72
2023/12/13 03:28:05;;;;;;;29.70;16.98;;;;;;;;;;4869266;29;20486;-71
2023/12/13 03:30:31;;;;;;;29.55;17.42;;;;;;;;;;4865387;29;20053;-71
2023/12/13 03:32:58;;;;;;;32.55;17.50;;;;;;;;;;4861643;29;20498;-71
2023/12/13 03:35:24;;;;;;;28.40;16.05;;;;;;;;;;4864416;29;20045;-71
2023/12/13 03:37:50;;;;;;;30.42;17.38;;;;;;;;;;4865489;29;20049;-71
2023/12/13 03:40:16;;;;;;;34.53;17.38;;;;;;;;;;4869802;29;20045;-71
2023/12/13 03:42:42;;;;;;;33.55;18.27;;;;;;;;;;4859712;29;20041;-71
2023/12/13 03:45:08;;;;;;;29.45;16.65;;;;;;;;;;4869936;29;20048;-71
2023/12/13 03:47:34;;;;;;;33.20;17.38;;;;;;;;;;4845104;29;20072;-72
2023/12/13 03:50:00;;;;;;;30.70;18.40;;;;;;;;;;4867550;29;20455;-71
2023/12/13 03:52:26;;;;;;;26.85;16.65;;;;;;;;;;4863077;29;20069;-71
2023/12/13 03:54:52;;;;;;;32.40;17.38;;;;;;;;;;4856736;29;20084;-71
2023/12/13 03:57:18;;;;;;;30.65;16.35;;;;;;;;;;4864868;29;20518;-71
2023/12/13 03:59:44;;;;;;;32.55;16.63;;;;;;;;;;4860944;29;20045;-71
2023/12/13 04:02:13;;;;;;;35.35;18.25;;;;;;;;;;4865192;29;20097;-71
2023/12/13 04:04:39;;;;;;;30.00;17.40;;;;;;;;;;4863970;29;20064;-71
2023/12/13 04:07:08;;;;;;;32.40;17.98;;;;;;;;;;4861878;29;20060;-71
2023/12/13 04:09:34;;;;;;;32.72;17.88;;;;;;;;;;4860678;29;20414;-71
2023/12/13 04:12:02;;;;;;;32.63;17.65;;;;;;;;;;4857666;29;20045;-71
2023/12/13 04:14:28;;;;;;;30.55;18.05;;;;;;;;;;4864575;29;20045;-71
2023/12/13 04:16:54;;;;;;;30.20;18.02;;;;;;;;;;4864308;29;20059;-71
2023/12/13 04:19:23;;;;;;;29.67;17.05;;;;;;;;;;4859847;29;20517;-71
2023/12/13 04:21:49;;;;;;;37.42;17.02;;;;;;;;;;4859538;29;20054;-71
2023/12/13 04:24:15;;;;;;;33.13;18.17;;;;;;;;;;4860350;29;20117;-72
2023/12/13 04:26:41;;;;;;;30.42;17.58;;;;;;;;;;4855972;29;20042;-72
2023/12/13 04:29:10;;;;;;;32.45;18.02;;;;;;;;;;4863092;29;20057;-72
2023/12/13 04:31:36;;;;;;;38.05;18.85;;;;;;;;;;4863938;29;20445;-71
2023/12/13 04:34:03;;;;;;;31.90;18.05;;;;;;;;;;4855545;29;20561;-71
2023/12/13 04:36:30;;;;;;;42.63;19.70;;;;;;;;;;4856820;29;20049;-71
2023/12/13 04:38:57;;;;;;;33.40;19.40;;;;;;;;;;4858541;29;20709;-71
2023/12/13 04:41:23;;;;;;;37.15;20.55;;;;;;;;;;4860271;29;20057;-71
2023/12/13 04:43:50;;;;;;;38.22;20.55;;;;;;;;;;4862134;29;20049;-71
2023/12/13 04:46:16;;;;;;;40.45;21.67;;;;;;;;;;4864444;29;20056;-71
2023/12/13 04:48:45;;;;;;;39.95;20.60;;;;;;;;;;4866717;29;20049;-71
2023/12/13 04:51:11;;;;;;;43.92;21.73;;;;;;;;;;4862142;29;20478;-71
2023/12/13 04:53:37;;;;;;;48.78;22.58;;;;;;;;;;4858293;29;20076;-71
2023/12/13 04:56:03;;;;;;;42.78;23.05;;;;;;;;;;4865243;29;20077;-71
2023/12/13 04:58:29;;;;;;;39.72;22.88;;;;;;;;;;4858481;29;20145;-72
2023/12/13 05:00:55;;;;;;;39.55;22.95;;;;;;;;;;4861561;29;21317;-71
2023/12/13 05:03:21;;;;;;;40.97;24.92;;;;;;;;;;4862507;29;20060;-71
2023/12/13 05:05:47;;;;;;;48.00;24.52;;;;;;;;;;4865670;29;20145;-71
2023/12/13 05:08:13;;;;;;;50.33;24.95;;;;;;;;;;4861742;29;20128;-71
2023/12/13 05:10:41;;;;;;;46.70;24.95;;;;;;;;;;4857763;29;20042;-71
2023/12/13 05:13:07;;;;;;;44.65;24.42;;;;;;;;;;4867943;29;20136;-71
2023/12/13 05:15:34;;;;;;;44.85;23.88;;;;;;;;;;4864622;29;20132;-72
2023/12/13 05:18:00;;;;;;;41.28;24.23;;;;;;;;;;4860182;29;20052;-71
2023/12/13 05:20:28;;;;;;;43.33;24.38;;;;;;;;;;4859307;29;21148;-71
2023/12/13 05:22:54;;;;;;;48.08;24.17;;;;;;;;;;4867533;29;20104;-71
2023/12/13 05:25:20;;;;;;;44.20;23.23;;;;;;;;;;4864155;29;20057;-71
2023/12/13 05:27:46;;;;;;;42.65;22.95;;;;;;;;;;4867733;29;20483;-71
2023/12/13 05:30:12;;;;;;;45.95;23.92;;;;;;;;;;4870752;29;20076;-71
2023/12/13 05:32:38;;;;;;;52.67;25.55;;;;;;;;;;4871552;29;20044;-71
2023/12/13 05:35:05;;;;;;;48.78;24.58;;;;;;;;;;4866369;29;20076;-71
2023/12/13 05:37:34;;;;;;;49.22;24.63;;;;;;;;;;4871671;29;20136;-71
2023/12/13 05:40:00;;;;;;;48.10;24.58;;;;;;;;;;4868246;29;20084;-71
2023/12/13 05:42:26;;;;;;;46.08;23.85;;;;;;;;;;4863519;29;20128;-71
2023/12/13 05:44:52;;;;;;;49.53;24.42;;;;;;;;;;4873561;29;20045;-71
2023/12/13 05:47:18;;;;;;;50.75;26.10;;;;;;;;;;4867070;29;20053;-71
2023/12/13 05:49:44;;;;;;;49.75;26.10;;;;;;;;;;4867065;29;20502;-71
2023/12/13 05:52:13;;;;;;;50.40;26.10;;;;;;;;;;4869709;29;20053;-71
2023/12/13 05:54:39;;;;;;;43.10;24.33;;;;;;;;;;4864235;29;20187;-71
2023/12/13 05:57:05;;;;;;;54.03;27.58;;;;;;;;;;4861284;29;20053;-71
2023/12/13 05:59:31;;;;;;;47.67;26.15;;;;;;;;;;4867864;29;20109;-72
2023/12/13 06:01:57;;;;;;;47.72;25.05;;;;;;;;;;4862504;29;20041;-71
2023/12/13 06:04:29;;;;;;;51.40;25.08;;;;;;;;;;4868313;29;20075;-71
2023/12/13 06:06:55;;;;;;;49.35;27.58;;;;;;;;;;4867344;29;20040;-71
2023/12/13 06:09:21;;;;;;;56.20;28.45;;;;;;;;;;4865077;29;20461;-71
2023/12/13 06:11:47;;;;;;;60.60;27.45;;;;;;;;;;4861631;29;20049;-71
2023/12/13 06:14:13;;;;;;;52.05;26.38;;;;;;;;;;4869296;29;20124;-71
2023/12/13 06:16:42;;;;;;;58.72;27.30;;;;;;;;;;4863478;29;20044;-71
2023/12/13 06:19:08;;;;;;;55.28;27.05;;;;;;;;;;4846627;29;20065;-71
2023/12/13 06:21:34;;;;;;;52.60;27.17;;;;;;;;;;4872899;29;20495;-71
2023/12/13 06:24:04;;;;;;;51.63;26.55;;;;;;;;;;4861774;29;20085;-71
2023/12/13 06:26:30;;;;;;;50.40;26.27;;;;;;;;;;4866347;29;20053;-71
2023/12/13 06:28:56;;;;;;;55.85;26.95;;;;;;;;;;4864383;29;20045;-71
2023/12/13 06:31:22;;;;;;;57.65;27.38;;;;;;;;;;4865788;29;20486;-71
2023/12/13 06:33:48;;;;;;;52.58;27.95;;;;;;;;;;4866962;29;20055;-71
2023/12/13 06:36:14;;;;;;;52.95;26.13;;;;;;;;;;4869477;29;20053;-71
2023/12/13 06:38:40;;;;;;;48.25;25.75;;;;;;;;;;4865682;29;20045;-71
2023/12/13 06:41:06;;;;;;;52.60;26.15;;;;;;;;;;4860349;29;20057;-71
2023/12/13 06:43:32;;;;;;;49.50;24.85;;;;;;;;;;4866471;29;20444;-71
2023/12/13 06:46:01;;;;;;;55.13;26.13;;;;;;;;;;4871997;29;20049;-71
2023/12/13 06:48:28;;;;;;;47.63;24.27;;;;;;;;;;4870337;29;20132;-71
2023/12/13 06:50:55;;;;;;;46.50;24.60;;;;;;;;;;4862093;29;20092;-71
2023/12/13 06:53:21;;;;;;;49.38;24.90;;;;;;;;;;4857997;29;20136;-71
2023/12/13 06:55:57;;;;;;;52.63;26.02;;;;;;;;;;4869896;29;20048;-71
2023/12/13 06:58:23;;;;;;;46.53;24.10;;;;;;;;;;4871035;29;20401;-72
2023/12/13 07:00:51;;;;;;;47.78;24.40;;;;;;;;;;4865440;29;20057;-71
2023/12/13 07:03:17;;;;;;;50.13;24.88;;;;;;;;;;4865949;29;20088;-71
2023/12/13 07:05:43;;;;;;;47.30;24.30;;;;;;;;;;4870940;29;20052;-71
2023/12/13 07:08:12;;;;;;;49.47;23.60;;;;;;;;;;4861431;29;20069;-71
2023/12/13 07:10:39;;;;;;;49.92;24.27;;;;;;;;;;4859256;29;20374;-71
2023/12/13 07:13:05;;;;;;;46.47;24.65;;;;;;;;;;4863225;29;20045;-71
2023/12/13 07:15:31;;;;;;;52.55;24.33;;;;;;;;;;4883169;29;20491;-71
2023/12/13 07:17:57;;;;;;;57.55;27.13;;;;;;;;;;4862919;29;20051;-71
2023/12/13 07:20:25;;;;;;;48.08;25.05;;;;;;;;;;4863434;29;20497;-71
2023/12/13 07:22:52;;;;;;;62.80;25.98;;;;;;;;;;4868385;29;20690;-71
2023/12/13 07:25:20;;;;;;;48.95;24.90;;;;;;;;;;4859123;29;20097;-71
2023/12/13 07:27:46;;;;;;;49.00;25.23;;;;;;;;;;4866795;29;20109;-71
2023/12/13 07:30:12;;;;;;;54.03;26.40;;;;;;;;;;4866414;29;20041;-72
2023/12/13 07:32:39;;;;;;;52.72;26.63;;;;;;;;;;4868261;29;20048;-71
2023/12/13 07:35:06;;;;;;;55.83;26.23;;;;;;;;;;4865287;29;20057;-71
2023/12/13 07:37:32;;;;;;;53.78;24.95;;;;;;;;;;4870763;29;20057;-72
2023/12/13 07:39:58;;;;;;;56.40;26.63;;;;;;;;;;4857461;29;22114;-71
2023/12/13 07:42:27;;;;;;;52.55;25.13;;;;;;;;;;4867146;29;20137;-70
2023/12/13 07:44:53;;;;;;;52.00;26.10;;;;;;;;;;4883173;29;20132;-71
2023/12/13 07:47:20;;;;;;;51.30;25.50;;;;;;;;;;4863577;29;20132;-71
2023/12/13 07:49:46;;;;;;;45.78;25.38;;;;;;;;;;4867873;29;20520;-71
2023/12/13 07:52:12;;;;;;;50.63;25.55;;;;;;;;;;4871628;29;20379;-71
2023/12/13 07:54:38;;;;;;;49.22;25.85;;;;;;;;;;4870909;29;20454;-71
2023/12/13 07:57:04;;;;;;;68.57;27.75;;;;;;;;;;4875506;29;20067;-71
2023/12/13 07:59:30;;;;;;;139.63;33.70;;;;;;;;;;4875957;29;20079;-71
2023/12/13 08:01:56;;;;;;;83.32;30.73;;;;;;;;;;4874012;29;20049;-70
2023/12/13 08:04:22;;;;;;;50.47;26.48;;;;;;;;;;4866843;29;20057;-71
2023/12/13 08:06:48;;;;;;;51.53;25.80;;;;;;;;;;4872646;29;20056;-71
2023/12/13 08:09:15;;;;;;;49.90;26.42;;;;;;;;;;4857735;29;20049;-71
2023/12/13 08:11:43;;;;;;;52.95;24.73;;;;;;;;;;4864047;29;20514;-71
2023/12/13 08:14:09;;;;;;;52.75;23.77;;;;;;;;;;4891657;29;20052;-71
2023/12/13 08:16:35;;;;;;;50.50;24.60;;;;;;;;;;4872331;29;20051;-71
2023/12/13 08:19:01;;;;;;;50.03;24.92;;;;;;;;;;4868488;29;20057;-71
2023/12/13 08:21:27;;;;;;;50.67;25.83;;;;;;;;;;4863369;29;20558;-70
2023/12/13 08:23:53;;;;;;;50.05;25.45;;;;;;;;;;4863785;29;20495;-71
2023/12/13 08:26:25;;;;;;;48.92;24.63;;;;;;;;;;4872588;29;20048;-71
2023/12/13 08:28:51;;;;;;;50.75;23.40;;;;;;;;;;4867044;29;20057;-71
2023/12/13 08:31:17;;;;;;;50.97;24.48;;;;;;;;;;4864581;29;20451;-71
2023/12/13 08:33:44;;;;;;;55.10;25.23;;;;;;;;;;4877321;29;20677;-71
2023/12/13 08:36:11;;;;;;;50.35;24.92;;;;;;;;;;4880524;29;20700;-71
2023/12/13 08:38:37;;;;;;;55.20;26.80;;;;;;;;;;4884392;29;20086;-72
2023/12/13 08:41:05;;;;;;;57.85;28.58;;;;;;;;;;4882581;29;20051;-71
2023/12/13 08:43:31;;;;;;;55.42;26.75;;;;;;;;;;4887586;29;20211;-71
2023/12/13 08:45:57;;;;;;;61.95;29.13;;;;;;;;;;4881425;29;20049;-71
2023/12/13 08:48:23;;;;;;;62.10;29.23;;;;;;;;;;4883032;29;20048;-71
2023/12/13 08:50:49;;;;;;;53.17;26.08;;;;;;;;;;4881987;29;20112;-71
2023/12/13 08:53:15;;;;;;;60.45;28.73;;;;;;;;;;4890511;29;20061;-71
2023/12/13 08:55:42;;;;;;;52.33;24.73;;;;;;;;;;4883661;29;20143;-71
2023/12/13 08:58:08;;;;;;;56.65;24.95;;;;;;;;;;4879024;29;20517;-71
2023/12/13 09:00:34;;;;;;;60.10;26.70;;;;;;;;;;4872764;29;20046;-71
2023/12/13 09:03:01;;;;;;;50.42;25.38;;;;;;;;;;4875225;29;20117;-72
2023/12/13 09:05:27;;;;;;;52.25;26.75;;;;;;;;;;4861082;29;20136;-73
2023/12/13 09:07:53;;;;;;;52.85;26.15;;;;;;;;;;4867726;29;20127;-72
2023/12/13 09:10:20;;;;;;;48.90;25.67;;;;;;;;;;4872548;29;20076;-71
2023/12/13 09:12:46;;;;;;;48.22;26.85;;;;;;;;;;4877330;29;20558;-71
2023/12/13 09:15:13;;;;;;;46.15;27.13;;;;;;;;;;4877683;29;20056;-71
2023/12/13 09:17:40;;;;;;;53.00;27.80;;;;;;;;;;4865554;29;20135;-71
2023/12/13 09:20:09;;;;;;;61.33;28.65;;;;;;;;;;4869884;29;20128;-71
2023/12/13 09:22:36;;;;;;;51.13;25.98;;;;;;;;;;4864547;29;20061;-71
2023/12/13 09:25:02;;;;;;;53.40;26.08;;;;;;;;;;4860879;29;20055;-71
2023/12/13 09:27:31;;;;;;;52.03;26.27;;;;;;;;;;4865214;29;20072;-71
2023/12/13 09:30:00;;;;;;;51.17;25.85;;;;;;;;;;4869035;29;20044;-71
2023/12/13 09:32:26;;;;;;;49.42;24.85;;;;;;;;;;4872643;29;20429;-71
2023/12/13 09:34:52;;;;;;;44.35;24.17;;;;;;;;;;4867221;29;20050;-71
2023/12/13 09:37:18;;;;;;;47.55;24.33;;;;;;;;;;4861554;29;20053;-71
2023/12/13 09:39:45;;;;;;;45.75;24.10;;;;;;;;;;4865832;29;20056;-71
2023/12/13 09:42:12;;;;;;;48.22;24.20;;;;;;;;;;4870316;29;20395;-70
2023/12/13 09:44:39;;;;;;;51.25;25.48;;;;;;;;;;4866188;29;20048;-71
2023/12/13 09:47:05;;;;;;;51.95;26.17;;;;;;;;;;4863403;29;20041;-71
2023/12/13 09:49:32;;;;;;;47.63;24.40;;;;;;;;;;4872614;29;20056;-71
2023/12/13 09:52:00;;;;;;;51.30;25.63;;;;;;;;;;4868054;29;20417;-71
2023/12/13 09:54:26;;;;;;;47.55;25.38;;;;;;;;;;4871300;29;20044;-71
2023/12/13 09:56:52;;;;;;;52.70;26.38;;;;;;;;;;4872280;29;20486;-71
2023/12/13 09:59:18;;;;;;;49.88;25.10;;;;;;;;;;4869369;29;20100;-71
2023/12/13 10:01:44;;;;;;;48.90;25.90;;;;;;;;;;4880811;29;20088;-71
2023/12/13 10:04:10;;;;;;;53.00;26.30;;;;;;;;;;4887137;29;20506;-71
2023/12/13 10:06:36;;;;;;;51.08;27.02;;;;;;;;;;4870195;29;20135;-71
2023/12/13 10:09:05;;;;;;;50.53;25.58;;;;;;;;;;4874483;29;20092;-70
2023/12/13 10:11:31;;;;;;;53.25;26.40;;;;;;;;;;4879591;29;20052;-71
2023/12/13 10:13:57;;;;;;;49.95;26.42;;;;;;;;;;4880000;29;20052;-70
2023/12/13 10:16:23;;;;;;;54.83;26.77;;;;;;;;;;4868326;29;20401;-70
2023/12/13 10:18:49;;;;;;;54.70;28.00;;;;;;;;;;4865967;29;20053;-71
2023/12/13 10:21:16;;;;;;;56.60;25.15;;;;;;;;;;4880836;29;20442;-71
2023/12/13 10:23:42;;;;;;;57.35;27.33;;;;;;;;;;4887950;29;20052;-71
2023/12/13 10:26:09;;;;;;;49.35;25.50;;;;;;;;;;4878063;29;20051;-70
2023/12/13 10:28:35;;;;;;;58.35;27.23;;;;;;;;;;4867788;29;20068;-70
2023/12/13 10:31:02;;;;;;;53.35;27.17;;;;;;;;;;4863971;29;20406;-71
2023/12/13 10:33:31;;;;;;;57.75;26.38;;;;;;;;;;4871012;29;20049;-70
2023/12/13 10:35:59;;;;;;;54.33;27.30;;;;;;;;;;4880883;29;20115;-71
2023/12/13 10:38:25;;;;;;;57.55;27.73;;;;;;;;;;4872328;29;20513;-70
2023/12/13 10:40:52;;;;;;;54.55;28.33;;;;;;;;;;4869727;29;20064;-71
2023/12/13 10:43:19;;;;;;;54.60;26.10;;;;;;;;;;4870209;29;20045;-71
2023/12/13 10:46:04;;;;;;;55.35;26.40;;;;;;;;;;4870867;29;20135;-71
2023/12/13 10:48:33;;;;;;;52.67;27.00;;;;;;;;;;4887370;29;20052;-71
2023/12/13 10:51:00;;;;;;;58.03;26.73;;;;;;;;;;4874950;29;20075;-71
2023/12/13 10:53:27;;;;;;;57.28;26.25;;;;;;;;;;4869358;29;20060;-71
2023/12/13 10:55:53;;;;;;;55.42;26.92;;;;;;;;;;4879675;29;20040;-71
2023/12/13 10:58:19;;;;;;;52.08;27.27;;;;;;;;;;4868431;29;20053;-71
2023/12/13 11:00:46;;;;;;;57.28;27.13;;;;;;;;;;4864389;29;20048;-71
2023/12/13 11:03:16;;;;;;;59.00;28.58;;;;;;;;;;4879888;29;20045;-71
2023/12/13 11:05:42;;;;;;;60.78;29.17;;;;;;;;;;4883554;29;20072;-72
2023/12/13 11:08:16;;;;;;;62.08;29.08;;;;;;;;;;4873694;29;20123;-71
2023/12/13 11:10:54;;;;;;;59.85;29.80;;;;;;;;;;4885325;29;20057;-71
2023/12/13 11:13:23;;;;;;;57.33;30.20;;;;;;;;;;4887152;29;20048;-71
2023/12/13 11:15:49;;;;;;;56.08;28.95;;;;;;;;;;4892836;29;20045;-71
2023/12/13 11:18:16;;;;;;;62.42;30.77;;;;;;;;;;4860931;29;20152;-71
2023/12/13 11:20:46;;;;;;;60.13;29.88;;;;;;;;;;4867408;29;20048;-71
2023/12/13 11:23:16;;;;;;;62.55;30.92;;;;;;;;;;4879536;29;20489;-71
2023/12/13 11:25:45;;;;;;;64.00;31.27;;;;;;;;;;4868348;29;20346;-71
2023/12/13 11:28:20;;;;;;;61.80;30.98;;;;;;;;;;4862932;29;20045;-71
2023/12/13 11:30:47;;;;;;;57.95;29.42;;;;;;;;;;4871679;29;20497;-72
2023/12/13 11:33:13;;;;;;;57.42;28.20;;;;;;;;;;4874473;29;20774;-71
2023/12/13 11:35:39;;;;;;;57.33;29.95;;;;;;;;;;4880282;29;20045;-71
2023/12/13 11:38:08;;;;;;;59.80;31.10;;;;;;;;;;4871246;29;20056;-70
2023/12/13 11:40:34;;;;;;;56.08;30.05;;;;;;;;;;4883486;29;20512;-70
2023/12/13 11:43:00;;;;;;;64.35;31.30;;;;;;;;;;4882068;29;20068;-70
2023/12/13 11:45:26;;;;;;;61.92;30.73;;;;;;;;;;4877404;29;20052;-70
2023/12/13 11:47:52;;;;;;;61.78;30.58;;;;;;;;;;4890256;29;20052;-70
2023/12/13 11:50:22;;;;;;;57.45;28.83;;;;;;;;;;4872465;29;20084;-70
2023/12/13 11:52:48;;;;;;;63.22;31.58;;;;;;;;;;4869478;29;20088;-70
2023/12/13 11:55:14;;;;;;;57.65;30.50;;;;;;;;;;4873313;29;20108;-71
2023/12/13 11:57:40;;;;;;;63.50;30.90;;;;;;;;;;4894459;29;20044;-70
2023/12/13 12:00:07;;;;;;;60.55;30.67;;;;;;;;;;4881700;29;20051;-70
2023/12/13 12:02:33;;;;;;;55.28;30.85;;;;;;;;;;4884290;29;20044;-70
2023/12/13 12:05:03;;;;;;;59.20;31.08;;;;;;;;;;4880624;29;20127;-70
2023/12/13 12:07:29;;;;;;;60.40;32.47;;;;;;;;;;4883652;29;20036;-71
2023/12/13 12:09:56;;;;;;;59.13;29.83;;;;;;;;;;4883569;29;20063;-70
2023/12/13 12:12:25;;;;;;;61.53;30.60;;;;;;;;;;4899116;29;20045;-70
2023/12/13 12:14:51;;;;;;;64.45;30.17;;;;;;;;;;4874565;29;20087;-70
2023/12/13 12:17:20;;;;;;;64.07;30.95;;;;;;;;;;4860529;29;20072;-70
2023/12/13 12:19:59;;;;;;;59.25;29.67;;;;;;;;;;4896084;29;20047;-70
2023/12/13 12:22:25;;;;;;;59.63;31.15;;;;;;;;;;4884981;29;20053;-70
2023/12/13 12:24:51;;;;;;;59.78;31.23;;;;;;;;;;4866605;29;20044;-70
2023/12/13 12:27:22;;;;;;;62.03;31.85;;;;;;;;;;4868275;29;20052;-71
2023/12/13 12:29:48;;;;;;;61.03;30.63;;;;;;;;;;4872569;29;20122;-71
2023/12/13 12:32:17;;;;;;;63.10;30.70;;;;;;;;;;4872713;29;20518;-70
2023/12/13 12:34:48;;;;;;;61.20;31.17;;;;;;;;;;4869300;29;20182;-71
2023/12/13 12:37:17;;;;;;;61.05;30.10;;;;;;;;;;4883932;29;20052;-71
2023/12/13 12:39:43;;;;;;;64.70;31.30;;;;;;;;;;4873284;29;20092;-70
2023/12/13 12:42:09;;;;;;;59.95;30.58;;;;;;;;;;4874786;29;20045;-71
2023/12/13 12:44:38;;;;;;;56.08;29.42;;;;;;;;;;4867447;29;20048;-71
2023/12/13 12:47:04;;;;;;;58.85;29.08;;;;;;;;;;4871349;29;20063;-71
2023/12/13 12:49:30;;;;;;;56.72;29.17;;;;;;;;;;4871623;29;20493;-71
2023/12/13 12:51:56;;;;;;;63.22;29.35;;;;;;;;;;4870252;29;20599;-71
2023/12/13 12:54:22;;;;;;;63.58;29.85;;;;;;;;;;4873475;29;20107;-71
2023/12/13 12:56:50;;;;;;;60.15;31.75;;;;;;;;;;4875658;29;20048;-71
2023/12/13 12:59:16;;;;;;;62.55;30.75;;;;;;;;;;4872404;29;20081;-71
2023/12/13 13:01:43;;;;;;;63.92;31.08;;;;;;;;;;4867647;29;20135;-71
2023/12/13 13:04:19;;;;;;;60.75;29.75;;;;;;;;;;4883299;29;20037;-71
2023/12/13 13:06:46;;;;;;;59.20;30.00;;;;;;;;;;4880535;29;20044;-71
2023/12/13 13:09:12;;;;;;;58.08;30.67;;;;;;;;;;4877499;29;20052;-71
2023/12/13 13:11:38;;;;;;;67.07;32.63;;;;;;;;;;4882777;29;20128;-71
2023/12/13 13:14:13;;;;;;;64.25;31.60;;;;;;;;;;4869749;29;20052;-71
2023/12/13 13:16:39;;;;;;;56.05;30.05;;;;;;;;;;4871983;29;20114;-71
2023/12/13 13:19:05;;;;;;;53.65;30.05;;;;;;;;;;4874410;29;20355;-71
2023/12/13 13:21:33;;;;;;;66.90;30.05;;;;;;;;;;4873419;29;20091;-71
2023/12/13 13:24:02;;;;;;;53.28;28.77;;;;;;;;;;4870715;29;20052;-70
2023/12/13 13:26:31;;;;;;;61.15;30.73;;;;;;;;;;4871772;29;20067;-71
2023/12/13 13:28:57;;;;;;;60.75;29.83;;;;;;;;;;4885072;29;20485;-71
2023/12/13 13:31:23;;;;;;;64.82;30.58;;;;;;;;;;4870593;29;20068;-71
2023/12/13 13:33:49;;;;;;;64.10;28.55;;;;;;;;;;4875808;29;20044;-71
2023/12/13 13:36:15;;;;;;;68.53;30.23;;;;;;;;;;4876977;29;20492;-71
2023/12/13 13:38:41;;;;;;;63.03;28.02;;;;;;;;;;4869689;29;20049;-70
2023/12/13 13:41:07;;;;;;;62.15;28.05;;;;;;;;;;4868087;29;20068;-71
2023/12/13 13:43:34;;;;;;;64.78;27.67;;;;;;;;;;4874974;29;20064;-71
2023/12/13 13:46:00;;;;;;;55.10;25.95;;;;;;;;;;4864688;29;20076;-71
2023/12/13 13:48:26;;;;;;;61.92;26.75;;;;;;;;;;4888789;29;20049;-71
2023/12/13 13:50:52;;;;;;;63.90;25.25;;;;;;;;;;4875653;29;20535;-71
2023/12/13 13:53:18;;;;;;;54.67;24.48;;;;;;;;;;4889782;29;20552;-70
2023/12/13 13:55:44;;;;;;;55.70;23.92;;;;;;;;;;4869039;29;20049;-71
2023/12/13 13:58:11;;;;;;;50.75;24.27;;;;;;;;;;4873906;29;20072;-71
2023/12/13 14:00:37;;;;;;;56.92;23.08;;;;;;;;;;4884366;29;20120;-71
2023/12/13 14:03:04;;;;;;;51.40;22.27;;;;;;;;;;4878996;29;20569;-72
2023/12/13 14:05:35;;;;;;;55.25;23.13;;;;;;;;;;4878415;29;20053;-73
2023/12/13 14:08:06;;;;;;;49.70;21.98;;;;;;;;;;4896460;29;20052;-72
2023/12/13 14:10:32;;;;;;;50.67;23.27;;;;;;;;;;4886532;29;20086;-72
2023/12/13 14:12:58;;;;;;;48.88;23.10;;;;;;;;;;4892795;29;20071;-73